Time;durP1;ratioP1;P1;durP2;ratioP2;P2;SDS_P1;SDS_P2;PMS_P1;PMS_P2;Temp;Humidity;BMP_temperature;BMP_pressure;BME280_temperature;BME280_humidity;BME280_pressure;Samples;Min_cycle;Max_cycle;Signal;HPM_P1;HPM_P2
2022/04/12 00:01:51;;;;;;;5.07;3.38;;;6.20;57.40;;;;;;5094330;28;20556;-63
2022/04/12 00:04:18;;;;;;;5.90;3.40;;;6.20;57.50;;;;;;5098100;28;20181;-64
2022/04/12 00:06:45;;;;;;;3.10;2.70;;;6.20;57.40;;;;;;5114774;28;20196;-63
2022/04/12 00:09:14;;;;;;;4.57;3.15;;;6.20;57.40;;;;;;5111277;28;20185;-63
2022/04/12 00:11:42;;;;;;;6.93;3.30;;;6.30;58.00;;;;;;5094221;28;20193;-63
2022/04/12 00:14:11;;;;;;;4.90;3.42;;;6.30;57.40;;;;;;5095420;28;20220;-63
2022/04/12 00:16:39;;;;;;;5.72;4.13;;;6.20;57.40;;;;;;5114347;28;20551;-63
2022/04/12 00:19:06;;;;;;;5.03;2.85;;;6.30;57.40;;;;;;5113025;28;20191;-64
2022/04/12 00:21:35;;;;;;;3.78;2.53;;;6.30;57.40;;;;;;5094059;28;20656;-63
2022/04/12 00:24:04;;;;;;;4.53;3.85;;;6.20;57.40;;;;;;5093894;28;20189;-65
2022/04/12 00:26:33;;;;;;;4.05;2.80;;;6.20;57.60;;;;;;5073586;28;20657;-63
2022/04/12 00:29:00;;;;;;;4.25;3.05;;;6.20;57.70;;;;;;5073470;28;20193;-64
2022/04/12 00:31:30;;;;;;;6.57;3.47;;;6.30;57.60;;;;;;5112594;28;20195;-63
2022/04/12 00:33:57;;;;;;;6.00;3.03;;;6.30;57.40;;;;;;5114046;28;20252;-63
2022/04/12 00:36:25;;;;;;;3.95;3.03;;;6.30;57.40;;;;;;5094830;28;20681;-63
2022/04/12 00:38:52;;;;;;;5.18;3.80;;;6.30;57.40;;;;;;5093607;28;20199;-63
2022/04/12 00:41:19;;;;;;;6.57;3.20;;;6.30;57.00;;;;;;5110570;28;20184;-64
2022/04/12 00:43:48;;;;;;;6.20;4.07;;;6.30;57.50;;;;;;5113774;28;20550;-63
2022/04/12 00:46:15;;;;;;;5.03;3.17;;;6.20;57.40;;;;;;5112147;28;20184;-64
2022/04/12 00:48:43;;;;;;;4.68;2.80;;;6.20;56.90;;;;;;5113586;28;20189;-63
2022/04/12 00:51:11;;;;;;;5.07;3.35;;;6.10;56.80;;;;;;5098188;28;20284;-64
2022/04/12 00:53:38;;;;;;;9.00;4.60;;;6.00;57.30;;;;;;5093188;28;20225;-64
2022/04/12 00:56:06;;;;;;;9.02;4.75;;;5.90;57.50;;;;;;5110387;28;20188;-63
2022/04/12 00:58:34;;;;;;;9.88;4.25;;;5.80;57.50;;;;;;5113432;28;20192;-64
2022/04/12 01:01:02;;;;;;;7.55;4.05;;;5.80;57.70;;;;;;5096593;28;20697;-63
2022/04/12 01:03:29;;;;;;;5.90;3.97;;;5.70;57.70;;;;;;5093142;28;20193;-63
2022/04/12 01:05:58;;;;;;;7.10;4.43;;;5.60;57.60;;;;;;5108310;28;20188;-63
2022/04/12 01:08:25;;;;;;;9.15;6.55;;;5.60;57.60;;;;;;5114026;28;20188;-63
2022/04/12 01:10:53;;;;;;;13.88;7.88;;;5.60;57.60;;;;;;5098607;28;20181;-65
2022/04/12 01:13:21;;;;;;;9.98;5.60;;;5.50;57.70;;;;;;5100867;28;20185;-64
2022/04/12 01:15:49;;;;;;;7.20;4.22;;;5.50;57.40;;;;;;5113431;28;20192;-63
2022/04/12 01:18:18;;;;;;;8.68;4.50;;;5.40;57.90;;;;;;5105305;28;20220;-65
2022/04/12 01:20:45;;;;;;;5.82;4.10;;;5.40;58.70;;;;;;5092810;28;20192;-64
2022/04/12 01:23:21;;;;;;;6.55;4.70;;;5.40;58.10;;;;;;5098536;28;20616;-64
2022/04/12 01:25:50;;;;;;;6.50;4.80;;;5.40;58.20;;;;;;5113185;28;20191;-63
2022/04/12 01:28:17;;;;;;;10.23;4.35;;;5.30;58.20;;;;;;5103156;28;20216;-63
2022/04/12 01:30:44;;;;;;;11.10;5.05;;;5.30;58.80;;;;;;5092996;28;20189;-63
2022/04/12 01:33:12;;;;;;;6.65;4.43;;;5.30;58.40;;;;;;5110932;28;20245;-64
2022/04/12 01:35:39;;;;;;;6.88;3.90;;;5.30;58.60;;;;;;5112827;28;20219;-63
2022/04/12 01:38:06;;;;;;;8.07;4.13;;;5.30;59.40;;;;;;5095355;28;20200;-63
2022/04/12 01:40:34;;;;;;;6.40;3.80;;;5.30;59.30;;;;;;5092616;28;20537;-64
2022/04/12 01:43:02;;;;;;;9.10;4.20;;;5.30;59.20;;;;;;5106340;28;20184;-64
2022/04/12 01:45:29;;;;;;;5.40;3.55;;;5.30;58.80;;;;;;5112834;28;20241;-63
2022/04/12 01:47:57;;;;;;;6.30;4.32;;;5.30;58.60;;;;;;5097899;28;20189;-63
2022/04/12 01:50:24;;;;;;;5.93;4.13;;;5.20;58.70;;;;;;5092485;28;20669;-63
2022/04/12 01:52:51;;;;;;;6.22;4.05;;;5.10;59.40;;;;;;5105331;28;20188;-63
2022/04/12 01:55:18;;;;;;;5.50;3.47;;;5.10;59.50;;;;;;5112656;28;20259;-63
2022/04/12 01:57:45;;;;;;;5.00;3.25;;;5.10;59.90;;;;;;5100603;28;20180;-63
2022/04/12 02:00:15;;;;;;;5.97;3.90;;;5.00;60.20;;;;;;5095580;28;20197;-63
2022/04/12 02:02:42;;;;;;;4.57;3.72;;;5.00;60.60;;;;;;5110203;28;20662;-63
2022/04/12 02:05:10;;;;;;;6.50;2.97;;;4.90;60.90;;;;;;5116699;28;20199;-63
2022/04/12 02:07:37;;;;;;;4.97;3.03;;;4.90;61.10;;;;;;5103137;28;20185;-63
2022/04/12 02:10:05;;;;;;;5.70;4.05;;;4.90;61.00;;;;;;5099661;28;20180;-64
2022/04/12 02:12:32;;;;;;;7.55;3.63;;;4.90;61.10;;;;;;5116762;27;20198;-63
2022/04/12 02:14:59;;;;;;;5.20;3.55;;;4.90;61.60;;;;;;5100973;28;20225;-63
2022/04/12 02:17:28;;;;;;;5.97;3.00;;;4.90;61.50;;;;;;5096299;28;20243;-63
2022/04/12 02:19:55;;;;;;;4.00;2.80;;;5.00;62.50;;;;;;5097019;28;20197;-63
2022/04/12 02:22:23;;;;;;;4.55;2.70;;;4.90;62.30;;;;;;5096163;28;20189;-63
2022/04/12 02:24:50;;;;;;;4.35;2.85;;;4.90;61.80;;;;;;5109070;28;20241;-63
2022/04/12 02:27:17;;;;;;;4.07;3.10;;;4.80;61.00;;;;;;5116571;28;20188;-65
2022/04/12 02:29:44;;;;;;;4.63;3.10;;;4.80;61.10;;;;;;5104341;28;20185;-63
2022/04/12 02:32:11;;;;;;;4.65;2.90;;;4.80;62.20;;;;;;5096595;28;20521;-63
2022/04/12 02:34:46;;;;;;;5.03;2.75;;;4.70;61.40;;;;;;5105607;28;20212;-63
2022/04/12 02:37:16;;;;;;;4.60;2.92;;;4.60;61.20;;;;;;5116404;28;20199;-63
2022/04/12 02:39:43;;;;;;;4.32;2.50;;;4.40;60.70;;;;;;5104683;28;20188;-63
2022/04/12 02:42:10;;;;;;;4.13;3.20;;;4.30;61.20;;;;;;5116158;28;20249;-63
2022/04/12 02:44:37;;;;;;;3.63;2.50;;;4.30;60.40;;;;;;5114303;28;20421;-63
2022/04/12 02:47:05;;;;;;;5.00;3.47;;;4.20;60.50;;;;;;5115906;28;20199;-63
2022/04/12 02:49:32;;;;;;;4.38;2.88;;;4.10;61.50;;;;;;5107909;28;20253;-63
2022/04/12 02:52:01;;;;;;;3.90;2.60;;;4.00;62.00;;;;;;5095626;28;20193;-63
2022/04/12 02:54:28;;;;;;;5.57;3.25;;;3.90;62.40;;;;;;5101775;28;20773;-63
2022/04/12 02:56:55;;;;;;;7.45;2.63;;;3.90;63.70;;;;;;5115800;28;20260;-63
2022/04/12 02:59:22;;;;;;;11.85;3.17;;;4.00;64.20;;;;;;5110075;28;20212;-63
2022/04/12 03:01:49;;;;;;;8.13;3.30;;;4.00;64.90;;;;;;5095409;28;20188;-63
2022/04/12 03:04:17;;;;;;;5.63;3.40;;;4.10;65.30;;;;;;5104966;28;20188;-64
2022/04/12 03:06:44;;;;;;;4.45;3.00;;;4.10;65.10;;;;;;5115915;28;20192;-63
2022/04/12 03:09:12;;;;;;;6.20;3.35;;;4.20;65.90;;;;;;5107096;28;20193;-63
2022/04/12 03:11:40;;;;;;;4.07;2.55;;;4.20;66.00;;;;;;5096113;28;20193;-62
2022/04/12 03:14:08;;;;;;;4.25;3.05;;;4.20;65.00;;;;;;5115298;28;20189;-63
2022/04/12 03:16:35;;;;;;;4.30;2.92;;;4.20;64.50;;;;;;5114712;28;20227;-64
2022/04/12 03:19:02;;;;;;;4.60;3.20;;;4.20;64.70;;;;;;5074960;28;20196;-63
2022/04/12 03:21:30;;;;;;;4.15;2.78;;;4.20;64.30;;;;;;5074632;28;20194;-63
2022/04/12 03:23:57;;;;;;;4.22;2.53;;;4.10;64.30;;;;;;5113705;28;20271;-63
2022/04/12 03:26:26;;;;;;;3.97;2.50;;;4.00;63.90;;;;;;5115541;28;20539;-63
2022/04/12 03:28:53;;;;;;;4.07;2.88;;;3.90;63.70;;;;;;5099857;28;20191;-64
2022/04/12 03:31:21;;;;;;;3.63;2.65;;;3.80;64.20;;;;;;5095126;28;20660;-64
2022/04/12 03:33:49;;;;;;;4.60;2.97;;;3.70;64.50;;;;;;5095050;28;20220;-63
2022/04/12 03:36:16;;;;;;;4.72;3.03;;;3.70;64.30;;;;;;5094769;28;20223;-64
2022/04/12 03:38:48;;;;;;;9.27;4.07;;;3.70;64.20;;;;;;5094812;28;20188;-63
2022/04/12 03:41:18;;;;;;;6.22;3.75;;;3.70;64.70;;;;;;5110201;28;20398;-63
2022/04/12 03:43:47;;;;;;;4.72;2.88;;;3.80;65.40;;;;;;5104581;28;20242;-64
2022/04/12 03:46:14;;;;;;;10.95;3.33;;;3.80;65.40;;;;;;5094799;28;20641;-63
2022/04/12 03:48:41;;;;;;;5.82;3.05;;;3.80;65.70;;;;;;5095577;28;20189;-63
2022/04/12 03:51:08;;;;;;;3.88;2.60;;;3.90;65.90;;;;;;5094498;28;20555;-63
2022/04/12 03:53:36;;;;;;;7.38;3.40;;;3.90;66.20;;;;;;5095241;28;20254;-63
2022/04/12 03:56:07;;;;;;;4.30;2.55;;;3.90;66.20;;;;;;5114580;28;20265;-63
2022/04/12 03:58:34;;;;;;;4.65;2.92;;;4.00;65.80;;;;;;5114074;27;20245;-64
2022/04/12 04:01:04;;;;;;;5.47;2.20;;;4.00;64.90;;;;;;5094447;28;20270;-63
2022/04/12 04:03:31;;;;;;;4.88;2.67;;;3.90;65.30;;;;;;5094538;28;20280;-63
2022/04/12 04:05:58;;;;;;;4.90;2.75;;;3.90;66.30;;;;;;5094807;28;20238;-63
2022/04/12 04:08:26;;;;;;;3.72;2.50;;;3.80;66.10;;;;;;5094616;28;20266;-63
2022/04/12 04:10:53;;;;;;;4.30;2.42;;;3.70;66.10;;;;;;5109512;28;20256;-68
2022/04/12 04:13:20;;;;;;;3.63;2.42;;;3.60;66.40;;;;;;5094505;28;20193;-63
2022/04/12 04:15:48;;;;;;;5.30;2.97;;;3.60;67.10;;;;;;5108877;28;20566;-64
2022/04/12 04:18:17;;;;;;;4.90;2.90;;;3.60;67.60;;;;;;5094451;28;20301;-63
2022/04/12 04:20:44;;;;;;;4.35;2.45;;;3.60;68.00;;;;;;5110238;28;20189;-63
2022/04/12 04:23:11;;;;;;;4.57;2.97;;;3.50;67.40;;;;;;5114033;27;20235;-63
2022/04/12 04:25:39;;;;;;;4.15;2.50;;;3.60;67.30;;;;;;5099138;28;20196;-63
2022/04/12 04:28:10;;;;;;;4.47;2.50;;;3.60;67.40;;;;;;5097072;28;20341;-63
2022/04/12 04:30:44;;;;;;;3.80;2.92;;;3.40;67.00;;;;;;5114349;28;20646;-64
2022/04/12 04:33:11;;;;;;;3.78;3.20;;;3.50;69.00;;;;;;5109922;28;20184;-63
2022/04/12 04:35:40;;;;;;;4.50;3.00;;;3.50;68.60;;;;;;5093827;28;20270;-63
2022/04/12 04:38:07;;;;;;;5.25;2.63;;;3.50;67.90;;;;;;5096064;28;20189;-64
2022/04/12 04:40:34;;;;;;;4.97;2.80;;;3.50;68.30;;;;;;5105975;28;20185;-63
2022/04/12 04:43:02;;;;;;;3.97;3.03;;;3.50;66.50;;;;;;5094734;28;20195;-64
2022/04/12 04:45:29;;;;;;;5.97;2.60;;;3.50;67.30;;;;;;5094670;28;20716;-65
2022/04/12 04:47:58;;;;;;;4.53;2.60;;;3.50;68.40;;;;;;5091887;28;20204;-63
2022/04/12 04:50:27;;;;;;;4.68;2.95;;;3.50;68.10;;;;;;5094926;28;20229;-63
2022/04/12 04:52:55;;;;;;;3.70;2.15;;;3.40;69.10;;;;;;5091943;28;20199;-64
2022/04/12 04:55:23;;;;;;;4.25;2.03;;;3.40;68.90;;;;;;5091284;28;20228;-65
2022/04/12 04:57:53;;;;;;;3.28;2.25;;;3.40;69.10;;;;;;5091798;28;20195;-63
2022/04/12 05:00:22;;;;;;;4.78;2.75;;;3.40;69.20;;;;;;5091964;28;20279;-63
2022/04/12 05:02:51;;;;;;;4.45;3.20;;;3.40;70.40;;;;;;5091629;28;20246;-63
2022/04/12 05:05:19;;;;;;;3.38;2.30;;;3.30;69.80;;;;;;5091549;28;20204;-63
2022/04/12 05:07:47;;;;;;;3.78;3.03;;;3.30;69.90;;;;;;5091758;28;20273;-67
2022/04/12 05:10:18;;;;;;;4.13;2.17;;;3.30;70.80;;;;;;5091561;28;20532;-64
2022/04/12 05:12:46;;;;;;;3.65;1.90;;;3.40;71.50;;;;;;5087711;28;20680;-63
2022/04/12 05:15:15;;;;;;;4.13;2.45;;;3.50;71.30;;;;;;5091267;28;20221;-63
2022/04/12 05:17:48;;;;;;;5.47;2.35;;;3.50;71.30;;;;;;5091110;28;20217;-63
2022/04/12 05:20:15;;;;;;;4.97;2.33;;;3.60;71.50;;;;;;5088325;28;20285;-63
2022/04/12 05:22:44;;;;;;;4.30;2.50;;;3.70;71.80;;;;;;5091611;28;20193;-64
2022/04/12 05:25:11;;;;;;;4.80;2.63;;;3.70;71.40;;;;;;5091159;28;20236;-63
2022/04/12 05:27:40;;;;;;;7.65;2.63;;;3.80;71.80;;;;;;5090958;28;20191;-63
2022/04/12 05:30:09;;;;;;;7.50;4.38;;;3.90;71.90;;;;;;5091523;28;20251;-63
2022/04/12 05:32:37;;;;;;;5.35;3.42;;;3.90;71.60;;;;;;5091160;28;20196;-64
2022/04/12 05:35:07;;;;;;;10.85;6.20;;;4.10;72.20;;;;;;5089988;28;20227;-63
2022/04/12 05:37:40;;;;;;;11.07;8.05;;;4.10;72.00;;;;;;5091359;28;20189;-63
2022/04/12 05:40:09;;;;;;;7.95;5.10;;;4.20;71.70;;;;;;5090952;28;20209;-63
2022/04/12 05:42:36;;;;;;;13.75;7.70;;;4.30;72.50;;;;;;5090469;28;20318;-63
2022/04/12 05:45:06;;;;;;;18.17;6.90;;;4.40;72.80;;;;;;5085571;28;20196;-64
2022/04/12 05:47:42;;;;;;;12.25;4.90;;;4.50;72.70;;;;;;5086561;28;20185;-63
2022/04/12 05:50:11;;;;;;;14.65;4.07;;;4.70;72.20;;;;;;5091314;28;20180;-63
2022/04/12 05:52:39;;;;;;;12.27;4.63;;;4.80;71.80;;;;;;5091126;28;20200;-63
2022/04/12 05:55:10;;;;;;;10.52;6.57;;;4.90;71.70;;;;;;5090807;28;20224;-63
2022/04/12 05:57:47;;;;;;;8.35;5.00;;;5.10;71.60;;;;;;5086484;28;20951;-63
2022/04/12 06:00:18;;;;;;;9.55;5.20;;;5.20;71.40;;;;;;5086770;28;20283;-65
2022/04/12 06:02:45;;;;;;;7.30;5.03;;;5.30;71.40;;;;;;5090470;28;20196;-64
2022/04/12 06:05:13;;;;;;;5.75;4.07;;;5.50;71.70;;;;;;5091174;28;20189;-63
2022/04/12 06:07:40;;;;;;;6.00;4.22;;;5.60;72.10;;;;;;5092991;28;20292;-64
2022/04/12 06:10:09;;;;;;;7.00;4.38;;;5.70;72.20;;;;;;5090750;28;20399;-64
2022/04/12 06:12:36;;;;;;;9.25;5.57;;;5.90;71.80;;;;;;5090598;28;20216;-65
2022/04/12 06:15:04;;;;;;;12.13;4.22;;;6.00;71.30;;;;;;5090693;28;20236;-63
2022/04/12 06:17:34;;;;;;;4.88;3.30;;;6.20;70.60;;;;;;5094424;28;20248;-64
2022/04/12 06:20:06;;;;;;;6.10;2.80;;;6.30;69.40;;;;;;5090685;28;20193;-63
2022/04/12 06:22:33;;;;;;;4.70;2.60;;;6.50;69.00;;;;;;5095144;28;20703;-63
2022/04/12 06:25:00;;;;;;;3.95;2.38;;;6.70;69.00;;;;;;5067727;28;20185;-64
2022/04/12 06:27:35;;;;;;;2.88;1.73;;;6.80;68.10;;;;;;5088516;28;20185;-63
2022/04/12 06:30:05;;;;;;;5.28;1.77;;;7.00;67.50;;;;;;5087676;28;20224;-66
2022/04/12 06:32:35;;;;;;;3.75;2.13;;;7.20;67.40;;;;;;5085596;28;20192;-67
2022/04/12 06:35:04;;;;;;;3.95;2.17;;;7.30;66.40;;;;;;5083771;28;20192;-64
2022/04/12 06:37:31;;;;;;;5.97;2.45;;;7.50;66.00;;;;;;5088884;28;20667;-64
2022/04/12 06:39:59;;;;;;;3.85;1.92;;;7.70;66.00;;;;;;5090739;28;20622;-64
2022/04/12 06:42:26;;;;;;;3.30;1.70;;;7.90;65.60;;;;;;5089941;28;20177;-65
2022/04/12 06:44:54;;;;;;;4.10;2.20;;;8.00;65.20;;;;;;5091345;28;20228;-64
2022/04/12 06:47:22;;;;;;;6.95;2.47;;;8.20;65.10;;;;;;5094368;28;20246;-64
2022/04/12 06:49:52;;;;;;;3.75;2.28;;;8.40;63.80;;;;;;5097169;28;20208;-68
2022/04/12 06:52:23;;;;;;;4.15;2.00;;;8.60;64.00;;;;;;5096435;28;20582;-64
2022/04/12 06:54:51;;;;;;;3.45;1.90;;;8.80;63.70;;;;;;5094263;28;20189;-64
2022/04/12 06:57:19;;;;;;;5.40;2.53;;;9.10;64.20;;;;;;5094222;28;20312;-64
2022/04/12 06:59:47;;;;;;;2.63;1.50;;;9.30;63.60;;;;;;5092306;28;20559;-63
2022/04/12 07:02:14;;;;;;;4.00;2.30;;;9.60;63.30;;;;;;5093893;28;20201;-64
2022/04/12 07:04:44;;;;;;;2.85;2.05;;;9.80;63.00;;;;;;5094097;28;20193;-64
2022/04/12 07:07:13;;;;;;;3.47;2.22;;;10.10;61.80;;;;;;5093825;28;20189;-65
2022/04/12 07:09:40;;;;;;;4.50;2.00;;;10.40;61.80;;;;;;5096644;28;20652;-64
2022/04/12 07:12:09;;;;;;;4.28;2.08;;;10.70;60.10;;;;;;5096742;28;20239;-64
2022/04/12 07:14:36;;;;;;;4.55;2.10;;;11.00;59.50;;;;;;5093743;28;20192;-64
2022/04/12 07:17:05;;;;;;;3.22;2.38;;;11.30;58.90;;;;;;5092657;28;20661;-64
2022/04/12 07:19:32;;;;;;;5.40;3.60;;;11.60;58.40;;;;;;5093422;28;20223;-63
2022/04/12 07:22:00;;;;;;;4.90;2.20;;;11.90;58.10;;;;;;5093569;28;20189;-64
2022/04/12 07:24:28;;;;;;;8.35;2.35;;;12.40;58.00;;;;;;5095445;28;20195;-65
2022/04/12 07:26:55;;;;;;;3.60;2.08;;;12.80;56.80;;;;;;5096153;28;20186;-66
2022/04/12 07:29:22;;;;;;;3.70;1.98;;;13.30;56.60;;;;;;5093242;28;20193;-64
2022/04/12 07:31:50;;;;;;;6.32;2.42;;;14.00;58.30;;;;;;5093262;28;20181;-64
2022/04/12 07:34:17;;;;;;;4.60;3.20;;;14.80;55.20;;;;;;5093082;28;20242;-64
2022/04/12 07:36:47;;;;;;;3.63;1.50;;;15.90;57.30;;;;;;5093106;28;20479;-64
2022/04/12 07:39:15;;;;;;;3.37;1.90;;;17.20;52.70;;;;;;5093531;28;20938;-64
2022/04/12 07:41:45;;;;;;;3.60;1.33;;;18.60;46.80;;;;;;5092683;28;20431;-66
2022/04/12 07:44:13;;;;;;;4.23;2.00;;;21.00;43.40;;;;;;5093803;28;20435;-64
2022/04/12 07:46:40;;;;;;;3.53;1.70;;;23.40;38.60;;;;;;5093158;28;20443;-64
2022/04/12 07:49:08;;;;;;;4.90;2.23;;;25.20;34.40;;;;;;5093268;28;20439;-64
2022/04/12 07:51:36;;;;;;;3.90;1.50;;;26.50;30.60;;;;;;5092949;28;20485;-65
2022/04/12 07:54:03;;;;;;;4.60;2.37;;;28.00;29.20;;;;;;5092971;28;20446;-65
2022/04/12 07:56:31;;;;;;;5.23;2.37;;;29.40;26.90;;;;;;5092130;28;20474;-65
2022/04/12 07:59:00;;;;;;;3.80;2.00;;;30.40;26.00;;;;;;5092346;28;20926;-63
2022/04/12 08:01:34;;;;;;;4.80;2.60;;;31.10;23.40;;;;;;5089080;28;20814;-63
2022/04/12 08:04:02;;;;;;;6.10;3.03;;;31.40;22.80;;;;;;5092664;28;20438;-62
2022/04/12 08:06:31;;;;;;;3.50;2.20;;;32.20;22.40;;;;;;5092088;28;20840;-64
2022/04/12 08:08:58;;;;;;;5.07;2.30;;;32.90;21.10;;;;;;5096083;28;20442;-62
2022/04/12 08:11:25;;;;;;;4.40;2.47;;;33.50;20.10;;;;;;5092477;28;20443;-63
2022/04/12 08:13:53;;;;;;;5.80;3.50;;;34.20;18.80;;;;;;5092680;28;20447;-63
2022/04/12 08:16:22;;;;;;;4.10;2.57;;;34.80;18.70;;;;;;5091511;28;20443;-63
2022/04/12 08:18:49;;;;;;;5.00;2.70;;;35.70;18.40;;;;;;5092642;28;20834;-63
2022/04/12 08:21:31;;;;;;;5.37;2.10;;;36.50;16.40;;;;;;5092907;28;20439;-62
2022/04/12 08:23:58;;;;;;;3.90;2.33;;;36.80;15.60;;;;;;5089036;28;20493;-63
2022/04/12 08:26:26;;;;;;;8.67;2.40;;;37.30;16.10;;;;;;5095802;28;20482;-62
2022/04/12 08:28:53;;;;;;;6.53;1.97;;;38.10;15.10;;;;;;5092403;28;20492;-64
2022/04/12 08:31:21;;;;;;;2.90;1.97;;;38.60;14.10;;;;;;5091911;28;20435;-63
2022/04/12 08:33:49;;;;;;;3.17;2.00;;;39.00;13.80;;;;;;5091823;28;20457;-63
2022/04/12 08:36:20;;;;;;;3.47;2.60;;;39.00;12.40;;;;;;5093107;28;20435;-63
2022/04/12 08:38:49;;;;;;;4.13;2.93;;;39.00;13.20;;;;;;5091757;28;20477;-63
2022/04/12 08:41:16;;;;;;;4.20;2.23;;;39.20;12.90;;;;;;5092009;28;20434;-63
2022/04/12 08:43:43;;;;;;;4.33;2.17;;;39.30;13.10;;;;;;5092118;28;20918;-63
2022/04/12 08:46:12;;;;;;;4.10;2.10;;;39.60;12.40;;;;;;5091544;28;21031;-65
2022/04/12 08:48:41;;;;;;;4.27;1.80;;;39.80;12.20;;;;;;5087992;28;20459;-63
2022/04/12 08:51:09;;;;;;;5.73;2.47;;;39.70;11.70;;;;;;5091687;28;20476;-66
2022/04/12 08:53:37;;;;;;;4.30;1.97;;;39.70;11.60;;;;;;5091403;28;20613;-63
2022/04/12 08:56:04;;;;;;;3.07;1.90;;;39.90;11.80;;;;;;5091542;28;20776;-63
2022/04/12 08:58:34;;;;;;;4.53;1.87;;;39.60;11.20;;;;;;5093864;28;20431;-66
2022/04/12 09:01:02;;;;;;;4.50;2.10;;;39.90;11.40;;;;;;5092033;28;20439;-64
2022/04/12 09:03:29;;;;;;;6.67;2.60;;;40.30;12.20;;;;;;5090692;28;20439;-64
2022/04/12 09:05:58;;;;;;;6.80;2.70;;;40.90;11.90;;;;;;5091055;28;20463;-63
2022/04/12 09:08:29;;;;;;;2.77;1.93;;;41.50;11.00;;;;;;5092532;28;21126;-63
2022/04/12 09:11:01;;;;;;;3.30;2.20;;;41.50;10.50;;;;;;5091372;28;20459;-65
2022/04/12 09:13:29;;;;;;;3.90;2.50;;;41.70;11.00;;;;;;5087954;28;20432;-63
2022/04/12 09:15:57;;;;;;;4.13;2.70;;;42.30;11.00;;;;;;5091628;28;20438;-63
2022/04/12 09:18:41;;;;;;;5.97;2.70;;;42.70;10.50;;;;;;5093219;28;20463;-65
2022/04/12 09:21:17;;;;;;;8.00;2.40;;;43.10;10.20;;;;;;5089291;28;20777;-63
2022/04/12 09:23:46;;;;;;;5.37;2.10;;;43.40;9.70;;;;;;5094968;28;20527;-65
2022/04/12 09:26:21;;;;;;;7.20;2.30;;;43.70;10.00;;;;;;5090993;28;20435;-63
2022/04/12 09:28:49;;;;;;;3.47;1.80;;;43.50;9.80;;;;;;5090488;28;20435;-64
2022/04/12 09:31:18;;;;;;;3.83;2.50;;;43.30;10.00;;;;;;5091431;28;20789;-63
2022/04/12 09:33:48;;;;;;;2.90;2.03;;;42.90;9.30;;;;;;5091763;28;20972;-63
2022/04/12 09:36:17;;;;;;;3.13;1.40;;;42.90;9.60;;;;;;5091182;28;20454;-64
2022/04/12 09:38:48;;;;;;;2.10;0.90;;;42.80;9.70;;;;;;5087238;28;20791;-64
2022/04/12 09:41:18;;;;;;;2.73;1.10;;;42.80;8.00;;;;;;5091240;28;20439;-63
2022/04/12 09:44:05;;;;;;;2.83;1.00;;;42.60;8.20;;;;;;5091276;28;20438;-63
2022/04/12 09:46:35;;;;;;;2.87;1.03;;;42.60;8.30;;;;;;5091168;28;20791;-63
2022/04/12 09:49:03;;;;;;;5.30;1.40;;;42.20;8.50;;;;;;5094449;28;20447;-63
2022/04/12 09:51:36;;;;;;;2.93;1.27;;;42.20;7.50;;;;;;5092206;28;20435;-63
2022/04/12 09:54:04;;;;;;;1.93;0.90;;;42.30;7.90;;;;;;5091089;28;20446;-63
2022/04/12 09:56:31;;;;;;;2.30;1.00;;;42.20;8.40;;;;;;5090940;28;20523;-63
2022/04/12 09:59:01;;;;;;;2.03;1.00;;;41.50;7.90;;;;;;5091811;28;20838;-63
2022/04/12 10:01:29;;;;;;;2.10;1.00;;;41.10;7.80;;;;;;5090627;28;20756;-65
2022/04/12 10:03:58;;;;;;;3.50;1.20;;;40.70;8.40;;;;;;5090929;28;20798;-65
2022/04/12 10:06:28;;;;;;;5.20;1.10;;;40.20;8.40;;;;;;5090405;28;20443;-64
2022/04/12 10:08:59;;;;;;;2.70;1.13;;;40.00;8.10;;;;;;5093994;28;20495;-63
2022/04/12 10:11:27;;;;;;;3.07;1.20;;;40.00;8.50;;;;;;5090691;28;20443;-63
2022/04/12 10:13:54;;;;;;;3.50;1.20;;;40.00;8.20;;;;;;5090135;28;20435;-63
2022/04/12 10:16:22;;;;;;;3.87;1.10;;;39.80;8.00;;;;;;5089344;28;20500;-63
2022/04/12 10:18:51;;;;;;;2.03;1.03;;;39.30;8.70;;;;;;5090603;28;21288;-63
2022/04/12 10:21:19;;;;;;;2.10;1.30;;;39.30;8.20;;;;;;5093590;28;20431;-63
2022/04/12 10:23:51;;;;;;;3.40;1.33;;;39.40;8.10;;;;;;5097152;28;20430;-63
2022/04/12 10:26:23;;;;;;;2.60;1.20;;;39.00;8.00;;;;;;5094522;28;20918;-64
2022/04/12 10:28:54;;;;;;;3.03;1.40;;;38.30;8.40;;;;;;5094813;28;20447;-63
2022/04/12 10:31:25;;;;;;;2.77;1.53;;;37.90;9.30;;;;;;5091052;28;20439;-62
2022/04/12 10:34:05;;;;;;;5.07;1.47;;;37.80;10.10;;;;;;5095420;28;20933;-63
2022/04/12 10:36:57;;;;;;;2.53;1.23;;;37.20;10.60;;;;;;5091011;28;20526;-63
2022/04/12 10:39:31;;;;;;;2.50;1.00;;;36.70;11.00;;;;;;5094317;28;20793;-63
2022/04/12 10:42:03;;;;;;;4.23;1.23;;;36.30;11.10;;;;;;5094411;28;20953;-63
2022/04/12 10:44:37;;;;;;;2.40;1.40;;;36.10;11.80;;;;;;5094534;28;20435;-63
2022/04/12 10:47:04;;;;;;;2.87;1.50;;;36.10;11.60;;;;;;5094649;28;20539;-63
2022/04/12 10:49:37;;;;;;;4.93;1.20;;;36.20;12.40;;;;;;5094217;28;20485;-62
2022/04/12 10:52:08;;;;;;;3.57;1.30;;;36.40;12.20;;;;;;5090055;28;20778;-62
2022/04/12 10:54:36;;;;;;;2.80;1.13;;;36.40;12.10;;;;;;5093778;28;20446;-62
2022/04/12 10:57:26;;;;;;;1.97;0.90;;;36.10;12.50;;;;;;5096003;28;20480;-62
2022/04/12 11:00:03;;;;;;;2.20;1.00;;;36.10;13.30;;;;;;5094643;28;20434;-64
2022/04/12 11:02:37;;;;;;;2.63;1.30;;;36.30;12.30;;;;;;5094070;28;20439;-63
2022/04/12 11:05:06;;;;;;;2.50;1.10;;;36.30;12.70;;;;;;5094971;28;20492;-63
2022/04/12 11:07:35;;;;;;;2.20;1.10;;;36.00;12.50;;;;;;5096248;28;20430;-63
2022/04/12 11:10:24;;;;;;;4.17;1.10;;;35.80;12.70;;;;;;5094033;28;20446;-64
2022/04/12 11:13:06;;;;;;;2.10;1.10;;;35.60;13.30;;;;;;5089160;28;20802;-63
2022/04/12 11:15:34;;;;;;;2.60;1.30;;;35.30;12.60;;;;;;5093912;28;20864;-63
2022/04/12 11:18:12;;;;;;;6.60;1.20;;;35.00;13.50;;;;;;5093501;28;20527;-63
2022/04/12 11:20:43;;;;;;;2.33;0.93;;;34.50;13.70;;;;;;5093470;28;20435;-62
2022/04/12 11:23:16;;;;;;;3.80;1.27;;;34.40;14.10;;;;;;5093257;28;20461;-63
2022/04/12 11:25:48;;;;;;;3.70;1.17;;;34.20;13.50;;;;;;5093312;28;20447;-63
2022/04/12 11:28:22;;;;;;;2.03;0.97;;;34.10;14.40;;;;;;5094662;28;20428;-63
2022/04/12 11:30:57;;;;;;;1.90;0.80;;;33.90;13.30;;;;;;5089389;28;20466;-62
2022/04/12 11:33:26;;;;;;;1.90;1.07;;;33.70;13.80;;;;;;5092151;28;20510;-65
2022/04/12 11:35:54;;;;;;;2.70;1.00;;;33.60;13.60;;;;;;5089902;28;20808;-62
2022/04/12 11:38:22;;;;;;;3.83;1.67;;;33.60;13.70;;;;;;5095812;28;20568;-62
2022/04/12 11:40:52;;;;;;;3.27;1.43;;;33.20;12.60;;;;;;5092997;28;20933;-63
2022/04/12 11:43:25;;;;;;;2.10;1.23;;;32.90;13.00;;;;;;5092409;28;20492;-62
2022/04/12 11:45:58;;;;;;;2.90;1.10;;;32.60;14.10;;;;;;5092959;28;20790;-62
2022/04/12 11:48:29;;;;;;;2.40;1.03;;;32.40;14.30;;;;;;5092525;28;20800;-64
2022/04/12 11:50:58;;;;;;;3.20;1.03;;;32.20;14.80;;;;;;5092578;28;20436;-63
2022/04/12 11:53:26;;;;;;;2.77;1.30;;;32.00;15.00;;;;;;5094555;28;20503;-63
2022/04/12 11:56:00;;;;;;;2.13;1.00;;;31.70;14.10;;;;;;5093297;28;20443;-63
2022/04/12 11:58:31;;;;;;;2.17;1.00;;;31.40;15.60;;;;;;5089054;28;20477;-63
2022/04/12 12:01:00;;;;;;;3.07;1.20;;;31.20;15.80;;;;;;5093016;28;20435;-63
2022/04/12 12:03:28;;;;;;;2.00;0.93;;;30.90;14.10;;;;;;5091898;28;20806;-62
2022/04/12 12:05:58;;;;;;;2.73;1.50;;;30.50;13.30;;;;;;5092246;28;20475;-62
2022/04/12 12:08:25;;;;;;;3.00;1.10;;;30.20;14.40;;;;;;5092957;28;20500;-62
2022/04/12 12:10:53;;;;;;;2.60;1.00;;;30.00;15.20;;;;;;5092838;28;20434;-63
2022/04/12 12:13:24;;;;;;;4.93;1.40;;;29.70;16.50;;;;;;5092082;28;20435;-62
2022/04/12 12:15:53;;;;;;;4.40;1.30;;;29.50;16.70;;;;;;5092604;28;20442;-64
2022/04/12 12:18:20;;;;;;;3.73;1.67;;;29.40;16.70;;;;;;5091795;28;20535;-64
2022/04/12 12:20:48;;;;;;;3.40;1.57;;;29.20;16.10;;;;;;5092858;28;20442;-63
2022/04/12 12:23:15;;;;;;;2.83;0.90;;;29.00;16.70;;;;;;5094878;28;20505;-62
2022/04/12 12:25:44;;;;;;;2.93;1.10;;;28.80;16.40;;;;;;5092183;28;20851;-63
2022/04/12 12:28:14;;;;;;;1.67;0.83;;;28.70;16.10;;;;;;5091830;28;20442;-63
2022/04/12 12:30:43;;;;;;;3.73;0.90;;;28.60;14.90;;;;;;5095227;28;20510;-63
2022/04/12 12:33:12;;;;;;;4.33;0.80;;;28.50;16.00;;;;;;5095270;28;20799;-63
2022/04/12 12:35:41;;;;;;;2.73;1.10;;;28.40;17.40;;;;;;5091849;28;20439;-63
2022/04/12 12:38:27;;;;;;;3.03;1.00;;;28.40;17.20;;;;;;5091854;28;20505;-62
2022/04/12 12:40:57;;;;;;;2.63;1.10;;;28.30;17.10;;;;;;5093928;28;20435;-63
2022/04/12 12:43:27;;;;;;;5.37;1.10;;;28.10;16.90;;;;;;5091543;28;20477;-63
2022/04/12 12:45:54;;;;;;;4.53;1.00;;;28.10;16.40;;;;;;5091505;28;20500;-62
2022/04/12 12:48:23;;;;;;;2.50;1.40;;;28.10;16.60;;;;;;5091753;28;20435;-63
2022/04/12 12:50:51;;;;;;;2.33;0.80;;;27.90;15.50;;;;;;5091999;28;20439;-63
2022/04/12 12:53:26;;;;;;;5.60;1.10;;;27.80;16.50;;;;;;5091769;28;20427;-63
2022/04/12 12:55:54;;;;;;;2.37;1.10;;;27.60;16.60;;;;;;5094996;28;20426;-62
2022/04/12 12:58:29;;;;;;;2.47;1.03;;;27.50;15.90;;;;;;5092034;28;20544;-62
2022/04/12 13:01:04;;;;;;;2.33;1.13;;;27.40;16.60;;;;;;5093018;28;20439;-64
2022/04/12 13:03:32;;;;;;;3.67;1.17;;;27.30;16.90;;;;;;5088396;28;20435;-62